sensor_id;sensor_type;location;lat;lon;timestamp;pressure;altitude;pressure_sealevel;temperature;humidity
42761;BME280;31672;47.638;19.026;2023-03-14T00:02:16;99381.47;;;3.70;68.50
42761;BME280;31672;47.638;19.026;2023-03-14T00:07:19;99369.31;;;3.69;68.95
42761;BME280;31672;47.638;19.026;2023-03-14T00:12:24;99376.22;;;3.70;69.09
42761;BME280;31672;47.638;19.026;2023-03-14T00:17:28;99358.13;;;3.67;68.81
42761;BME280;31672;47.638;19.026;2023-03-14T00:22:31;99350.50;;;3.64;68.96
42761;BME280;31672;47.638;19.026;2023-03-14T00:27:34;99339.19;;;3.63;68.80
42761;BME280;31672;47.638;19.026;2023-03-14T00:32:37;99331.31;;;3.63;69.12
42761;BME280;31672;47.638;19.026;2023-03-14T00:37:41;99323.41;;;3.63;69.22
42761;BME280;31672;47.638;19.026;2023-03-14T00:42:44;99317.75;;;3.58;69.28
42761;BME280;31672;47.638;19.026;2023-03-14T00:47:47;99315.28;;;3.57;69.32
42761;BME280;31672;47.638;19.026;2023-03-14T00:52:50;99300.09;;;3.51;69.18
42761;BME280;31672;47.638;19.026;2023-03-14T00:57:53;99298.88;;;3.45;69.77
42761;BME280;31672;47.638;19.026;2023-03-14T01:02:56;99293.22;;;3.40;70.02
42761;BME280;31672;47.638;19.026;2023-03-14T01:08:00;99289.94;;;3.38;69.48
42761;BME280;31672;47.638;19.026;2023-03-14T01:13:03;99280.97;;;3.31;69.70
42761;BME280;31672;47.638;19.026;2023-03-14T01:18:06;99276.41;;;3.33;70.02
42761;BME280;31672;47.638;19.026;2023-03-14T01:23:09;99270.84;;;3.36;70.04
42761;BME280;31672;47.638;19.026;2023-03-14T01:28:14;99244.34;;;3.29;70.11
42761;BME280;31672;47.638;19.026;2023-03-14T01:33:18;99244.91;;;3.23;70.28
42761;BME280;31672;47.638;19.026;2023-03-14T01:38:21;99240.41;;;3.15;70.62
42761;BME280;31672;47.638;19.026;2023-03-14T01:43:25;99234.50;;;3.04;70.46
42761;BME280;31672;47.638;19.026;2023-03-14T01:48:59;99216.19;;;2.94;70.70
42761;BME280;31672;47.638;19.026;2023-03-14T01:54:26;99203.34;;;2.81;70.35
42761;BME280;31672;47.638;19.026;2023-03-14T01:59:32;99209.31;;;2.74;71.09
42761;BME280;31672;47.638;19.026;2023-03-14T02:04:36;99195.09;;;2.66;71.08
42761;BME280;31672;47.638;19.026;2023-03-14T02:09:40;99174.69;;;2.60;71.45
42761;BME280;31672;47.638;19.026;2023-03-14T02:14:44;99161.03;;;2.57;71.55
42761;BME280;31672;47.638;19.026;2023-03-14T02:25:46;99165.50;;;2.47;71.98
42761;BME280;31672;47.638;19.026;2023-03-14T02:30:51;99155.13;;;2.45;72.25
42761;BME280;31672;47.638;19.026;2023-03-14T02:36:00;99141.47;;;2.41;72.44
42761;BME280;31672;47.638;19.026;2023-03-14T02:41:04;99135.69;;;2.38;73.12
42761;BME280;31672;47.638;19.026;2023-03-14T02:46:12;99133.47;;;2.33;73.03
42761;BME280;31672;47.638;19.026;2023-03-14T02:51:16;99141.63;;;2.30;73.27
42761;BME280;31672;47.638;19.026;2023-03-14T02:56:20;99125.34;;;2.36;73.54
42761;BME280;31672;47.638;19.026;2023-03-14T03:01:24;99109.19;;;2.41;73.36
42761;BME280;31672;47.638;19.026;2023-03-14T03:06:27;99104.47;;;2.45;73.38
42761;BME280;31672;47.638;19.026;2023-03-14T03:11:30;99105.03;;;2.48;73.31
42761;BME280;31672;47.638;19.026;2023-03-14T03:16:34;99095.63;;;2.46;73.07
42761;BME280;31672;47.638;19.026;2023-03-14T03:21:37;99114.69;;;2.38;73.73
42761;BME280;31672;47.638;19.026;2023-03-14T03:26:40;99107.72;;;2.29;73.39
42761;BME280;31672;47.638;19.026;2023-03-14T03:31:43;99097.09;;;2.21;74.01
42761;BME280;31672;47.638;19.026;2023-03-14T03:36:48;99094.91;;;2.16;74.02
42761;BME280;31672;47.638;19.026;2023-03-14T03:41:51;99082.63;;;2.07;73.88
42761;BME280;31672;47.638;19.026;2023-03-14T03:46:54;99094.91;;;1.97;74.44
42761;BME280;31672;47.638;19.026;2023-03-14T03:51:57;99082.63;;;1.97;74.52
42761;BME280;31672;47.638;19.026;2023-03-14T03:57:00;99080.84;;;1.98;74.94
42761;BME280;31672;47.638;19.026;2023-03-14T04:02:03;99072.72;;;1.91;74.86
42761;BME280;31672;47.638;19.026;2023-03-14T04:07:06;99074.09;;;1.85;75.03
42761;BME280;31672;47.638;19.026;2023-03-14T04:12:09;99074.41;;;1.82;75.04
42761;BME280;31672;47.638;19.026;2023-03-14T04:17:13;99083.63;;;1.77;74.97
42761;BME280;31672;47.638;19.026;2023-03-14T04:22:17;99070.94;;;1.72;75.29
42761;BME280;31672;47.638;19.026;2023-03-14T04:27:20;99060.78;;;1.69;75.40
42761;BME280;31672;47.638;19.026;2023-03-14T04:32:23;99053.03;;;1.68;75.49
42761;BME280;31672;47.638;19.026;2023-03-14T04:37:26;99060.06;;;1.67;75.76
42761;BME280;31672;47.638;19.026;2023-03-14T04:42:30;99065.75;;;1.63;75.56
42761;BME280;31672;47.638;19.026;2023-03-14T04:47:33;99066.81;;;1.60;75.78
42761;BME280;31672;47.638;19.026;2023-03-14T04:52:36;99069.75;;;1.57;75.77
42761;BME280;31672;47.638;19.026;2023-03-14T04:57:41;99058.56;;;1.55;76.41
42761;BME280;31672;47.638;19.026;2023-03-14T05:02:45;99064.91;;;1.62;76.32
42761;BME280;31672;47.638;19.026;2023-03-14T05:07:48;99038.16;;;1.68;76.73
42761;BME280;31672;47.638;19.026;2023-03-14T05:12:54;99045.84;;;1.79;76.88
42761;BME280;31672;47.638;19.026;2023-03-14T05:17:57;99037.44;;;1.85;76.47
42761;BME280;31672;47.638;19.026;2023-03-14T05:23:00;99044.47;;;1.95;76.49
42761;BME280;31672;47.638;19.026;2023-03-14T05:28:03;99027.75;;;2.05;76.74
42761;BME280;31672;47.638;19.026;2023-03-14T05:33:07;99032.25;;;2.23;76.30
42761;BME280;31672;47.638;19.026;2023-03-14T05:38:10;99023.34;;;2.43;76.10
42761;BME280;31672;47.638;19.026;2023-03-14T05:43:13;99020.19;;;2.67;76.10
42761;BME280;31672;47.638;19.026;2023-03-14T05:48:17;99015.88;;;2.93;75.21
42761;BME280;31672;47.638;19.026;2023-03-14T05:53:21;99011.56;;;3.20;75.22
42761;BME280;31672;47.638;19.026;2023-03-14T05:58:24;99008.00;;;3.47;74.30
42761;BME280;31672;47.638;19.026;2023-03-14T06:03:27;99017.44;;;3.75;73.70
42761;BME280;31672;47.638;19.026;2023-03-14T06:08:30;99008.28;;;4.06;72.60
42761;BME280;31672;47.638;19.026;2023-03-14T06:13:33;99005.47;;;4.33;71.44
42761;BME280;31672;47.638;19.026;2023-03-14T06:18:36;99013.66;;;4.64;70.98
42761;BME280;31672;47.638;19.026;2023-03-14T06:23:39;99007.31;;;4.91;70.07
42761;BME280;31672;47.638;19.026;2023-03-14T06:28:42;99002.09;;;5.16;69.19
42761;BME280;31672;47.638;19.026;2023-03-14T06:33:45;99003.81;;;5.41;68.67
42761;BME280;31672;47.638;19.026;2023-03-14T06:38:48;99014.34;;;5.66;67.93
42761;BME280;31672;47.638;19.026;2023-03-14T06:43:51;99001.31;;;5.97;67.16
42761;BME280;31672;47.638;19.026;2023-03-14T06:48:57;99009.69;;;6.25;66.47
42761;BME280;31672;47.638;19.026;2023-03-14T06:53:59;99005.97;;;6.50;65.92
42761;BME280;31672;47.638;19.026;2023-03-14T06:59:08;99005.88;;;6.75;65.20
42761;BME280;31672;47.638;19.026;2023-03-14T07:04:11;99010.50;;;7.04;64.57
42761;BME280;31672;47.638;19.026;2023-03-14T07:09:14;98998.44;;;7.32;63.73
42761;BME280;31672;47.638;19.026;2023-03-14T07:14:19;99000.19;;;7.63;63.68
42761;BME280;31672;47.638;19.026;2023-03-14T07:19:23;98993.94;;;7.93;62.76
42761;BME280;31672;47.638;19.026;2023-03-14T07:24:26;98999.09;;;8.24;61.67
42761;BME280;31672;47.638;19.026;2023-03-14T07:29:29;99003.13;;;8.50;60.67
42761;BME280;31672;47.638;19.026;2023-03-14T07:34:33;98990.88;;;8.78;60.20
42761;BME280;31672;47.638;19.026;2023-03-14T07:39:36;98978.81;;;9.12;59.64
42761;BME280;31672;47.638;19.026;2023-03-14T07:44:39;98963.66;;;9.49;58.17
42761;BME280;31672;47.638;19.026;2023-03-14T07:49:42;98961.25;;;9.82;55.99
42761;BME280;31672;47.638;19.026;2023-03-14T07:54:45;98952.09;;;10.19;54.76
42761;BME280;31672;47.638;19.026;2023-03-14T07:59:48;98946.19;;;10.52;53.91
42761;BME280;31672;47.638;19.026;2023-03-14T08:04:51;98923.38;;;10.77;52.54
42761;BME280;31672;47.638;19.026;2023-03-14T08:09:54;98916.75;;;11.28;52.75
42761;BME280;31672;47.638;19.026;2023-03-14T08:14:57;98920.63;;;11.78;51.30
42761;BME280;31672;47.638;19.026;2023-03-14T08:20:02;98913.00;;;12.15;50.51
42761;BME280;31672;47.638;19.026;2023-03-14T08:25:10;98895.06;;;12.48;49.36
42761;BME280;31672;47.638;19.026;2023-03-14T08:30:16;98897.19;;;12.71;48.51
42761;BME280;31672;47.638;19.026;2023-03-14T08:35:19;98889.69;;;13.25;49.14
42761;BME280;31672;47.638;19.026;2023-03-14T08:40:23;98886.59;;;13.96;48.68
42761;BME280;31672;47.638;19.026;2023-03-14T08:45:25;98883.34;;;14.49;46.43
42761;BME280;31672;47.638;19.026;2023-03-14T08:50:29;98863.72;;;15.39;45.60
42761;BME280;31672;47.638;19.026;2023-03-14T08:55:32;98855.28;;;16.29;43.04
42761;BME280;31672;47.638;19.026;2023-03-14T09:00:35;98836.56;;;17.20;41.05
42761;BME280;31672;47.638;19.026;2023-03-14T09:05:38;98820.03;;;17.78;40.14
42761;BME280;31672;47.638;19.026;2023-03-14T09:10:41;98806.22;;;18.35;38.40
42761;BME280;31672;47.638;19.026;2023-03-14T09:15:50;98788.94;;;18.80;37.45
42761;BME280;31672;47.638;19.026;2023-03-14T09:20:53;98786.94;;;19.35;36.45
42761;BME280;31672;47.638;19.026;2023-03-14T09:26:00;98782.94;;;19.42;35.27
42761;BME280;31672;47.638;19.026;2023-03-14T09:31:11;98783.97;;;19.36;34.98
42761;BME280;31672;47.638;19.026;2023-03-14T09:36:15;98773.16;;;19.26;35.81
42761;BME280;31672;47.638;19.026;2023-03-14T09:41:25;98768.41;;;18.74;35.66
42761;BME280;31672;47.638;19.026;2023-03-14T09:46:30;98747.66;;;18.42;36.61
42761;BME280;31672;47.638;19.026;2023-03-14T09:51:34;98731.88;;;18.24;36.70
42761;BME280;31672;47.638;19.026;2023-03-14T09:56:37;98739.16;;;18.29;36.53
42761;BME280;31672;47.638;19.026;2023-03-14T10:01:40;98740.13;;;18.44;36.25
42761;BME280;31672;47.638;19.026;2023-03-14T10:06:43;98719.00;;;18.85;35.75
42761;BME280;31672;47.638;19.026;2023-03-14T10:11:46;98718.91;;;19.07;35.75
42761;BME280;31672;47.638;19.026;2023-03-14T10:16:50;98718.22;;;19.27;35.57
42761;BME280;31672;47.638;19.026;2023-03-14T10:21:54;98707.00;;;19.45;34.43
42761;BME280;31672;47.638;19.026;2023-03-14T10:27:04;98699.44;;;19.42;34.85
42761;BME280;31672;47.638;19.026;2023-03-14T10:32:19;98697.28;;;19.39;34.89
42761;BME280;31672;47.638;19.026;2023-03-14T10:37:24;98696.72;;;19.42;34.67
42761;BME280;31672;47.638;19.026;2023-03-14T10:42:39;98668.84;;;19.64;35.38
42761;BME280;31672;47.638;19.026;2023-03-14T10:47:50;98655.47;;;20.15;34.89
42761;BME280;31672;47.638;19.026;2023-03-14T10:52:55;98644.75;;;20.55;33.86
42761;BME280;31672;47.638;19.026;2023-03-14T10:58:04;98638.78;;;20.69;33.31
42761;BME280;31672;47.638;19.026;2023-03-14T11:03:11;98622.63;;;20.64;32.85
42761;BME280;31672;47.638;19.026;2023-03-14T11:08:32;98616.69;;;20.56;32.56
42761;BME280;31672;47.638;19.026;2023-03-14T11:41:01;98553.75;;;21.96;30.77
42761;BME280;31672;47.638;19.026;2023-03-14T11:46:14;98545.38;;;21.92;30.65
42761;BME280;31672;47.638;19.026;2023-03-14T11:51:31;98546.47;;;21.91;30.92
42761;BME280;31672;47.638;19.026;2023-03-14T11:56:55;98538.69;;;21.35;30.96
42761;BME280;31672;47.638;19.026;2023-03-14T12:02:17;98521.63;;;20.75;31.81
42761;BME280;31672;47.638;19.026;2023-03-14T12:07:38;98523.34;;;20.20;32.12
42761;BME280;31672;47.638;19.026;2023-03-14T12:12:46;98518.22;;;19.83;33.21
42761;BME280;31672;47.638;19.026;2023-03-14T12:17:56;98516.56;;;19.56;32.80
42761;BME280;31672;47.638;19.026;2023-03-14T12:23:05;98504.34;;;19.08;33.76
42761;BME280;31672;47.638;19.026;2023-03-14T12:28:31;98501.84;;;18.91;34.18
42761;BME280;31672;47.638;19.026;2023-03-14T12:33:34;98495.31;;;18.77;34.56
42761;BME280;31672;47.638;19.026;2023-03-14T12:38:49;98491.50;;;18.67;34.62
42761;BME280;31672;47.638;19.026;2023-03-14T12:43:55;98490.03;;;18.50;35.11
42761;BME280;31672;47.638;19.026;2023-03-14T12:54:21;98482.16;;;18.33;34.33
42761;BME280;31672;47.638;19.026;2023-03-14T12:59:36;98472.16;;;18.28;34.29
42761;BME280;31672;47.638;19.026;2023-03-14T13:10:24;98471.75;;;18.04;34.41
42761;BME280;31672;47.638;19.026;2023-03-14T13:15:45;98475.44;;;17.98;34.59
42761;BME280;31672;47.638;19.026;2023-03-14T13:20:54;98474.09;;;17.96;34.65
42761;BME280;31672;47.638;19.026;2023-03-14T13:26:00;98470.88;;;17.94;34.79
42761;BME280;31672;47.638;19.026;2023-03-14T13:31:05;98474.31;;;17.89;34.66
42761;BME280;31672;47.638;19.026;2023-03-14T13:36:09;98479.97;;;17.87;35.32
42761;BME280;31672;47.638;19.026;2023-03-14T13:41:13;98488.78;;;17.83;35.99
42761;BME280;31672;47.638;19.026;2023-03-14T13:46:23;98487.19;;;17.87;35.62
42761;BME280;31672;47.638;19.026;2023-03-14T13:51:28;98494.56;;;18.02;35.64
42761;BME280;31672;47.638;19.026;2023-03-14T13:56:34;98491.44;;;18.15;35.18
42761;BME280;31672;47.638;19.026;2023-03-14T14:01:38;98501.50;;;18.35;34.48
42761;BME280;31672;47.638;19.026;2023-03-14T14:07:00;98490.63;;;18.57;33.60
42761;BME280;31672;47.638;19.026;2023-03-14T14:12:14;98499.31;;;18.69;33.87
42761;BME280;31672;47.638;19.026;2023-03-14T14:22:32;98485.56;;;18.65;33.78
42761;BME280;31672;47.638;19.026;2023-03-14T14:27:38;98479.06;;;18.56;33.78
42761;BME280;31672;47.638;19.026;2023-03-14T14:32:48;98473.38;;;18.48;34.40
42761;BME280;31672;47.638;19.026;2023-03-14T14:37:52;98478.72;;;18.42;34.75
42761;BME280;31672;47.638;19.026;2023-03-14T14:43:04;98476.50;;;18.29;34.41
42761;BME280;31672;47.638;19.026;2023-03-14T14:48:10;98473.72;;;18.19;35.07
42761;BME280;31672;47.638;19.026;2023-03-14T14:53:36;98481.69;;;18.04;35.45
42761;BME280;31672;47.638;19.026;2023-03-14T14:58:46;98478.03;;;17.83;36.54
42761;BME280;31672;47.638;19.026;2023-03-14T15:03:53;98477.31;;;17.65;36.37
42761;BME280;31672;47.638;19.026;2023-03-14T15:08:57;98475.56;;;17.49;37.06
42761;BME280;31672;47.638;19.026;2023-03-14T15:14:01;98475.38;;;17.29;37.98
42761;BME280;31672;47.638;19.026;2023-03-14T15:19:13;98486.66;;;17.04;39.36
42761;BME280;31672;47.638;19.026;2023-03-14T15:24:26;98504.06;;;16.79;41.73
42761;BME280;31672;47.638;19.026;2023-03-14T15:29:29;98517.88;;;16.32;44.08
42761;BME280;31672;47.638;19.026;2023-03-14T15:34:32;98574.47;;;15.86;49.28
42761;BME280;31672;47.638;19.026;2023-03-14T15:39:35;98569.03;;;15.12;56.59
42761;BME280;31672;47.638;19.026;2023-03-14T15:44:38;98589.56;;;14.48;60.39
42761;BME280;31672;47.638;19.026;2023-03-14T15:49:42;98609.47;;;13.98;64.39
42761;BME280;31672;47.638;19.026;2023-03-14T15:54:45;98610.44;;;13.55;66.75
42761;BME280;31672;47.638;19.026;2023-03-14T15:59:48;98612.25;;;13.25;69.42
42761;BME280;31672;47.638;19.026;2023-03-14T16:04:51;98613.66;;;12.91;72.70
42761;BME280;31672;47.638;19.026;2023-03-14T16:09:54;98627.69;;;12.61;75.67
42761;BME280;31672;47.638;19.026;2023-03-14T16:14:57;98626.59;;;12.44;76.64
42761;BME280;31672;47.638;19.026;2023-03-14T16:20:00;98610.94;;;12.29;77.77
42761;BME280;31672;47.638;19.026;2023-03-14T16:25:06;98606.75;;;12.15;79.03
42761;BME280;31672;47.638;19.026;2023-03-14T16:30:11;98613.22;;;12.00;80.20
42761;BME280;31672;47.638;19.026;2023-03-14T16:35:15;98619.22;;;11.89;81.54
42761;BME280;31672;47.638;19.026;2023-03-14T16:40:19;98616.81;;;11.74;82.19
42761;BME280;31672;47.638;19.026;2023-03-14T16:45:23;98627.94;;;11.65;82.83
42761;BME280;31672;47.638;19.026;2023-03-14T16:50:26;98636.16;;;11.57;83.61
42761;BME280;31672;47.638;19.026;2023-03-14T16:55:29;98647.66;;;11.50;83.82
42761;BME280;31672;47.638;19.026;2023-03-14T17:00:32;98661.97;;;11.49;84.17
42761;BME280;31672;47.638;19.026;2023-03-14T17:05:35;98674.69;;;11.47;84.46
42761;BME280;31672;47.638;19.026;2023-03-14T17:10:38;98684.50;;;11.47;85.63
42761;BME280;31672;47.638;19.026;2023-03-14T17:15:45;98676.56;;;11.40;86.13
42761;BME280;31672;47.638;19.026;2023-03-14T17:20:54;98688.63;;;11.36;87.31
42761;BME280;31672;47.638;19.026;2023-03-14T17:25:59;98692.53;;;11.27;87.51
42761;BME280;31672;47.638;19.026;2023-03-14T17:31:07;98688.25;;;11.19;88.60
42761;BME280;31672;47.638;19.026;2023-03-14T17:36:11;98681.34;;;11.12;89.25
42761;BME280;31672;47.638;19.026;2023-03-14T17:41:15;98700.19;;;11.04;90.51
42761;BME280;31672;47.638;19.026;2023-03-14T17:46:18;98705.91;;;10.94;91.44
42761;BME280;31672;47.638;19.026;2023-03-14T17:51:21;98706.31;;;10.84;91.78
42761;BME280;31672;47.638;19.026;2023-03-14T17:56:24;98710.44;;;10.74;92.70
42761;BME280;31672;47.638;19.026;2023-03-14T18:01:27;98716.34;;;10.69;92.71
42761;BME280;31672;47.638;19.026;2023-03-14T18:06:31;98715.31;;;10.63;93.42
42761;BME280;31672;47.638;19.026;2023-03-14T18:11:34;98718.38;;;10.60;93.34
42761;BME280;31672;47.638;19.026;2023-03-14T18:16:38;98708.78;;;10.59;93.69
42761;BME280;31672;47.638;19.026;2023-03-14T18:21:41;98708.78;;;10.59;93.02
42761;BME280;31672;47.638;19.026;2023-03-14T18:26:46;98712.03;;;10.61;92.24
42761;BME280;31672;47.638;19.026;2023-03-14T18:31:50;98713.88;;;10.61;91.77
42761;BME280;31672;47.638;19.026;2023-03-14T18:36:53;98719.59;;;10.64;91.08
42761;BME280;31672;47.638;19.026;2023-03-14T18:41:57;98710.00;;;10.63;91.45
42761;BME280;31672;47.638;19.026;2023-03-14T18:47:00;98704.47;;;10.65;90.91
42761;BME280;31672;47.638;19.026;2023-03-14T18:52:03;98697.75;;;10.62;90.94
42761;BME280;31672;47.638;19.026;2023-03-14T18:57:06;98695.28;;;10.61;91.06
42761;BME280;31672;47.638;19.026;2023-03-14T19:02:09;98691.41;;;10.57;91.92
42761;BME280;31672;47.638;19.026;2023-03-14T19:07:12;98698.97;;;10.53;92.44
42761;BME280;31672;47.638;19.026;2023-03-14T19:12:16;98678.31;;;10.49;93.04
42761;BME280;31672;47.638;19.026;2023-03-14T19:17:20;98668.72;;;10.41;94.07
42761;BME280;31672;47.638;19.026;2023-03-14T19:22:23;98678.09;;;10.37;94.69
42761;BME280;31672;47.638;19.026;2023-03-14T19:27:27;98700.38;;;10.29;95.20
42761;BME280;31672;47.638;19.026;2023-03-14T19:32:30;98699.13;;;10.25;95.96
42761;BME280;31672;47.638;19.026;2023-03-14T19:37:33;98684.41;;;10.23;96.62
42761;BME280;31672;47.638;19.026;2023-03-14T19:42:36;98687.28;;;10.21;96.63
42761;BME280;31672;47.638;19.026;2023-03-14T19:47:38;98684.41;;;10.23;96.92
42761;BME280;31672;47.638;19.026;2023-03-14T19:52:41;98677.69;;;10.20;96.89
42761;BME280;31672;47.638;19.026;2023-03-14T19:57:50;98666.66;;;10.23;96.59
42761;BME280;31672;47.638;19.026;2023-03-14T20:02:55;98667.69;;;10.35;93.95
42761;BME280;31672;47.638;19.026;2023-03-14T20:07:59;98686.28;;;10.35;93.26
42761;BME280;31672;47.638;19.026;2023-03-14T20:13:02;98699.78;;;10.40;92.61
42761;BME280;31672;47.638;19.026;2023-03-14T20:18:20;98700.38;;;10.42;92.58
42761;BME280;31672;47.638;19.026;2023-03-14T20:23:27;98698.75;;;10.41;92.33
42761;BME280;31672;47.638;19.026;2023-03-14T20:28:31;98706.72;;;10.41;92.84
42761;BME280;31672;47.638;19.026;2023-03-14T20:33:34;98720.22;;;10.47;92.70
42761;BME280;31672;47.638;19.026;2023-03-14T20:38:37;98733.69;;;10.52;91.97
42761;BME280;31672;47.638;19.026;2023-03-14T20:43:40;98743.31;;;10.53;91.73
42761;BME280;31672;47.638;19.026;2023-03-14T20:48:44;98743.91;;;10.55;91.84
42761;BME280;31672;47.638;19.026;2023-03-14T20:53:46;98753.94;;;10.59;91.56
42761;BME280;31672;47.638;19.026;2023-03-14T20:58:49;98763.75;;;10.65;91.46
42761;BME280;31672;47.638;19.026;2023-03-14T21:03:53;98777.44;;;10.69;91.82
42761;BME280;31672;47.638;19.026;2023-03-14T21:08:56;98780.09;;;10.69;91.83
42761;BME280;31672;47.638;19.026;2023-03-14T21:13:59;98789.28;;;10.66;92.28
42761;BME280;31672;47.638;19.026;2023-03-14T21:19:03;98791.13;;;10.59;92.80
42761;BME280;31672;47.638;19.026;2023-03-14T21:24:07;98799.88;;;10.47;93.65
42761;BME280;31672;47.638;19.026;2023-03-14T21:29:10;98790.44;;;10.37;94.10
42761;BME280;31672;47.638;19.026;2023-03-14T21:34:13;98807.16;;;10.25;94.25
42761;BME280;31672;47.638;19.026;2023-03-14T21:39:16;98806.50;;;10.16;93.85
42761;BME280;31672;47.638;19.026;2023-03-14T21:44:19;98802.38;;;10.07;93.62
42761;BME280;31672;47.638;19.026;2023-03-14T21:49:23;98803.38;;;9.99;92.75
42761;BME280;31672;47.638;19.026;2023-03-14T21:54:27;98803.97;;;9.95;92.74
42761;BME280;31672;47.638;19.026;2023-03-14T21:59:34;98812.53;;;9.90;92.67
42761;BME280;31672;47.638;19.026;2023-03-14T22:04:38;98818.22;;;9.87;92.27
42761;BME280;31672;47.638;19.026;2023-03-14T22:09:44;98819.44;;;9.84;92.46
42761;BME280;31672;47.638;19.026;2023-03-14T22:14:47;98825.13;;;9.81;92.16
42761;BME280;31672;47.638;19.026;2023-03-14T22:19:50;98836.56;;;9.82;92.07
42761;BME280;31672;47.638;19.026;2023-03-14T22:24:53;98838.81;;;9.78;91.97
42761;BME280;31672;47.638;19.026;2023-03-14T22:29:56;98850.00;;;9.74;91.40
42761;BME280;31672;47.638;19.026;2023-03-14T22:35:00;98855.06;;;9.69;90.57
42761;BME280;31672;47.638;19.026;2023-03-14T22:40:03;98861.59;;;9.66;89.85
42761;BME280;31672;47.638;19.026;2023-03-14T22:45:07;98861.16;;;9.62;89.55
42761;BME280;31672;47.638;19.026;2023-03-14T22:50:10;98855.41;;;9.59;89.25
42761;BME280;31672;47.638;19.026;2023-03-14T22:55:14;98863.56;;;9.57;88.71
42761;BME280;31672;47.638;19.026;2023-03-14T23:00:17;98865.78;;;9.54;88.43
42761;BME280;31672;47.638;19.026;2023-03-14T23:05:21;98853.31;;;9.48;88.16
42761;BME280;31672;47.638;19.026;2023-03-14T23:10:24;98846.94;;;9.42;86.02
42761;BME280;31672;47.638;19.026;2023-03-14T23:15:27;98848.13;;;9.39;84.32
42761;BME280;31672;47.638;19.026;2023-03-14T23:20:30;98854.81;;;9.35;82.85
42761;BME280;31672;47.638;19.026;2023-03-14T23:25:34;98857.88;;;9.32;82.03
42761;BME280;31672;47.638;19.026;2023-03-14T23:30:56;98859.25;;;9.28;80.59
42761;BME280;31672;47.638;19.026;2023-03-14T23:36:01;98846.41;;;9.25;79.80
42761;BME280;31672;47.638;19.026;2023-03-14T23:41:06;98830.88;;;9.22;79.45
42761;BME280;31672;47.638;19.026;2023-03-14T23:46:09;98844.88;;;9.16;79.15
42761;BME280;31672;47.638;19.026;2023-03-14T23:51:14;98856.25;;;9.10;79.50
42761;BME280;31672;47.638;19.026;2023-03-14T23:56:17;98861.97;;;9.07;79.50
